Time;durP1;ratioP1;P1;durP2;ratioP2;P2;SDS_P1;SDS_P2;PMS_P1;PMS_P2;Temp;Humidity;BMP_temperature;BMP_pressure;BME280_temperature;BME280_humidity;BME280_pressure;Samples;Min_cycle;Max_cycle;Signal;HPM_P1;HPM_P2
2023/04/06 00:01:26;;;;;;;5.90;5.20;;;;;;;3.90;100.00;102297.28;5036366;28;20219;-65
2023/04/06 00:03:51;;;;;;;7.20;5.23;;;;;;;3.75;100.00;102260.34;5037810;28;20215;-65
2023/04/06 00:06:17;;;;;;;7.00;5.30;;;;;;;3.97;100.00;102259.50;5037043;28;20204;-65
2023/04/06 00:08:43;;;;;;;6.10;4.70;;;;;;;3.72;100.00;102268.53;5040154;28;20184;-66
2023/04/06 00:11:08;;;;;;;5.47;4.97;;;;;;;4.03;100.00;102280.28;5020867;28;20192;-66
2023/04/06 00:13:34;;;;;;;5.90;5.00;;;;;;;3.39;100.00;102248.13;5039264;28;20180;-65
2023/04/06 00:16:00;;;;;;;7.90;4.80;;;;;;;3.80;100.00;102289.19;5037180;28;20301;-65
2023/04/06 00:18:26;;;;;;;6.70;5.50;;;;;;;4.06;100.00;102276.53;5039357;28;21010;-65
2023/04/06 00:20:52;;;;;;;6.40;5.00;;;;;;;4.12;100.00;102277.84;5021924;28;20187;-65
2023/04/06 00:23:17;;;;;;;7.10;5.13;;;;;;;4.11;100.00;102270.84;5039174;28;20462;-65
2023/04/06 00:25:43;;;;;;;5.53;4.70;;;;;;;3.95;100.00;102273.88;5038559;28;20180;-65
2023/04/06 00:28:08;;;;;;;6.37;5.30;;;;;;;3.92;100.00;102242.25;5019726;28;20184;-65
2023/04/06 00:30:34;;;;;;;7.80;5.37;;;;;;;3.95;100.00;102260.59;5035060;28;20181;-65
2023/04/06 00:33:00;;;;;;;7.57;5.40;;;;;;;3.83;100.00;102262.41;5021886;28;20226;-65
2023/04/06 00:35:26;;;;;;;6.73;4.83;;;;;;;3.81;100.00;102267.81;5037256;28;20185;-65
2023/04/06 00:37:51;;;;;;;5.53;4.83;;;;;;;3.65;100.00;102237.31;5034402;28;20496;-65
2023/04/06 00:40:17;;;;;;;6.10;5.03;;;;;;;3.78;100.00;102249.47;5019607;28;20188;-65
2023/04/06 00:42:43;;;;;;;6.27;5.10;;;;;;;3.88;100.00;102265.56;5035940;28;20188;-65
2023/04/06 00:45:09;;;;;;;6.30;4.73;;;;;;;3.71;100.00;102228.88;5034994;28;20216;-65
2023/04/06 00:47:35;;;;;;;7.00;5.13;;;;;;;3.73;100.00;102264.06;5037015;28;20484;-67
2023/04/06 00:50:00;;;;;;;5.97;5.30;;;;;;;3.76;100.00;102250.56;5005552;28;20437;-67
2023/04/06 00:52:26;;;;;;;7.87;4.83;;;;;;;3.29;100.00;102204.69;5022235;28;20681;-67
2023/04/06 00:54:51;;;;;;;5.57;5.07;;;;;;;3.71;100.00;102266.84;5035070;28;20555;-66
2023/04/06 00:57:17;;;;;;;5.67;5.07;;;;;;;3.58;100.00;102263.44;5021683;28;20212;-65
2023/04/06 00:59:43;;;;;;;7.33;5.73;;;;;;;3.44;100.00;102255.72;5018593;28;20287;-65
2023/04/06 01:02:09;;;;;;;5.87;5.10;;;;;;;3.34;100.00;102267.03;5037130;28;20513;-66
2023/04/06 01:04:35;;;;;;;7.27;5.83;;;;;;;3.24;100.00;102260.75;5035038;28;20302;-65
2023/04/06 01:07:01;;;;;;;12.07;5.27;;;;;;;3.17;100.00;102267.44;5039643;28;20200;-65
2023/04/06 01:09:30;;;;;;;7.40;5.50;;;;;;;3.54;100.00;102262.00;5035879;28;20188;-65
2023/04/06 01:11:58;;;;;;;6.23;5.60;;;;;;;3.54;100.00;102241.63;5021358;28;20443;-65
2023/04/06 01:14:25;;;;;;;6.30;5.70;;;;;;;3.38;100.00;102236.66;5022208;28;20963;-65
2023/04/06 01:16:52;;;;;;;6.20;5.60;;;;;;;3.25;100.00;102190.00;5039180;28;20513;-66
2023/04/06 01:19:17;;;;;;;5.93;5.33;;;;;;;3.45;100.00;102247.66;5015368;28;20439;-66
2023/04/06 01:21:43;;;;;;;6.50;5.60;;;;;;;3.31;100.00;102251.34;5019563;28;20451;-66
2023/04/06 01:24:09;;;;;;;6.83;5.40;;;;;;;3.40;100.00;102250.63;5019183;28;20215;-65
2023/04/06 01:26:35;;;;;;;6.70;6.10;;;;;;;3.14;100.00;102196.09;5036667;28;20269;-65
2023/04/06 01:29:02;;;;;;;6.17;5.57;;;;;;;3.22;100.00;102228.19;5038638;28;20430;-66
2023/04/06 01:31:28;;;;;;;8.83;5.60;;;;;;;3.38;100.00;102247.28;5020541;28;20475;-66
2023/04/06 01:33:54;;;;;;;6.53;5.60;;;;;;;3.38;100.00;102251.72;5034542;28;20450;-65
2023/04/06 01:36:20;;;;;;;7.40;5.90;;;;;;;3.20;100.00;102205.41;5037127;28;20548;-66
2023/04/06 01:38:46;;;;;;;6.13;5.50;;;;;;;3.47;100.00;102242.22;5036161;28;20518;-65
2023/04/06 01:41:11;;;;;;;7.80;5.80;;;;;;;3.36;100.00;102233.28;5031306;28;20227;-65
2023/04/06 01:43:37;;;;;;;7.27;6.53;;;;;;;3.67;100.00;102228.25;5015206;28;20269;-65
2023/04/06 01:46:02;;;;;;;7.13;6.43;;;;;;;3.52;100.00;102201.09;5031310;28;20212;-65
2023/04/06 01:48:28;;;;;;;9.50;7.50;;;;;;;3.49;100.00;102205.81;5019231;28;20642;-65
2023/04/06 01:50:54;;;;;;;6.90;6.20;;;;;;;3.50;100.00;102207.47;5020139;28;20195;-65
2023/04/06 01:53:20;;;;;;;7.93;6.43;;;;;;;2.98;100.00;102116.91;5023337;28;20196;-65
2023/04/06 01:55:45;;;;;;;8.40;6.13;;;;;;;3.40;100.00;102202.06;5020353;28;20437;-65
2023/04/06 01:58:11;;;;;;;8.90;6.60;;;;;;;2.89;100.00;102160.00;5042177;28;20539;-66
2023/04/06 02:00:36;;;;;;;6.70;5.80;;;;;;;3.47;100.00;102208.59;5040472;28;20187;-66
2023/04/06 02:03:02;;;;;;;7.53;6.77;;;;;;;3.21;100.00;102205.28;5021887;28;20208;-66
2023/04/06 02:05:30;;;;;;;7.60;6.73;;;;;;;2.86;100.00;102182.28;5040203;28;20266;-65
2023/04/06 02:07:56;;;;;;;7.07;6.37;;;;;;;3.06;100.00;102201.13;5023665;28;20262;-65
2023/04/06 02:10:22;;;;;;;8.80;6.83;;;;;;;3.12;100.00;102211.28;5020952;28;20434;-66
2023/04/06 02:12:48;;;;;;;9.67;6.63;;;;;;;2.93;100.00;102198.59;5038911;28;20821;-66
2023/04/06 02:15:14;;;;;;;6.90;6.20;;;;;;;2.87;100.00;102202.53;5039792;28;20426;-66
2023/04/06 02:17:40;;;;;;;8.93;6.80;;;;;;;2.91;100.00;102177.47;5038209;28;20740;-65
2023/04/06 02:20:06;;;;;;;11.27;7.17;;;;;;;3.09;100.00;102207.03;5023085;28;20494;-66
2023/04/06 02:22:32;;;;;;;7.13;6.33;;;;;;;2.81;100.00;102195.06;5040158;28;20427;-66
2023/04/06 02:24:57;;;;;;;11.33;6.83;;;;;;;2.08;100.00;102102.50;5038285;28;20490;-66
2023/04/06 02:27:24;;;;;;;9.03;6.33;;;;;;;2.35;100.00;102145.50;5038972;28;20231;-66
2023/04/06 02:29:50;;;;;;;7.03;6.33;;;;;;;2.95;100.00;102204.59;5038906;28;20227;-66
2023/04/06 02:32:15;;;;;;;9.80;6.87;;;;;;;2.52;100.00;102161.91;5021681;28;20430;-66
2023/04/06 02:34:40;;;;;;;9.50;7.40;;;;;;;3.00;100.00;102222.81;5022982;28;20243;-66
2023/04/06 02:37:06;;;;;;;8.93;7.53;;;;;;;2.67;100.00;102192.59;5021915;28;20208;-66
2023/04/06 02:39:31;;;;;;;9.27;7.00;;;;;;;2.77;100.00;102225.38;5020418;28;20678;-66
2023/04/06 02:41:57;;;;;;;8.33;7.43;;;;;;;3.01;100.00;102217.41;5038262;28;20192;-66
2023/04/06 02:44:23;;;;;;;7.50;6.47;;;;;;;3.15;100.00;102214.56;5039556;28;20211;-66
2023/04/06 02:46:48;;;;;;;8.40;6.90;;;;;;;3.21;100.00;102217.69;5037245;28;20203;-66
2023/04/06 02:49:14;;;;;;;9.50;7.23;;;;;;;3.14;100.00;102219.97;5033883;28;20682;-66
2023/04/06 02:51:39;;;;;;;8.77;6.90;;;;;;;2.37;100.00;102103.84;5023311;28;20215;-66
2023/04/06 02:54:05;;;;;;;9.83;7.60;;;;;;;2.63;100.00;102183.16;5037647;28;20184;-66
2023/04/06 02:56:31;;;;;;;9.20;7.60;;;;;;;2.75;100.00;102223.78;5033222;28;20588;-66
2023/04/06 02:58:56;;;;;;;8.77;7.70;;;;;;;2.09;100.00;102113.00;5022273;28;20191;-66
2023/04/06 03:01:22;;;;;;;9.10;7.60;;;;;;;2.87;100.00;102210.50;5037114;28;20702;-66
2023/04/06 03:03:47;;;;;;;9.77;7.00;;;;;;;2.81;100.00;102194.22;5033450;28;20629;-66
2023/04/06 03:06:13;;;;;;;8.73;7.73;;;;;;;2.58;100.00;102137.66;5036462;28;20232;-66
2023/04/06 03:08:38;;;;;;;10.07;7.47;;;;;;;2.76;100.00;102173.34;5031992;28;20219;-66
2023/04/06 03:11:04;;;;;;;8.77;7.03;;;;;;;2.88;100.00;102222.78;5037396;28;20239;-66
2023/04/06 03:13:29;;;;;;;10.33;7.70;;;;;;;2.83;100.00;102230.22;5021020;28;20191;-66
2023/04/06 03:15:55;;;;;;;9.00;7.90;;;;;;;2.89;100.00;102228.91;5034418;28;20189;-66
2023/04/06 03:18:25;;;;;;;9.00;7.73;;;;;;;2.84;100.00;102199.28;5022087;28;20188;-66
2023/04/06 03:20:51;;;;;;;8.57;6.70;;;;;;;2.89;100.00;102228.91;5022378;28;20203;-66
2023/04/06 03:23:16;;;;;;;8.43;7.60;;;;;;;2.84;100.00;102228.44;5038531;28;21376;-66
2023/04/06 03:25:42;;;;;;;7.97;7.17;;;;;;;2.83;100.00;102230.22;5037224;28;20448;-66
2023/04/06 03:28:07;;;;;;;9.80;8.77;;;;;;;2.81;100.00;102229.50;5038316;28;20184;-66
2023/04/06 03:30:34;;;;;;;8.77;7.87;;;;;;;2.98;100.00;102240.63;5033635;28;20719;-66
2023/04/06 03:33:00;;;;;;;8.87;7.97;;;;;;;3.09;100.00;102233.56;5039530;28;20191;-66
2023/04/06 03:35:25;;;;;;;9.03;7.80;;;;;;;2.95;100.00;102220.50;5033465;28;20424;-66
2023/04/06 03:37:51;;;;;;;11.73;8.60;;;;;;;2.77;100.00;102221.88;5020598;28;20208;-66
2023/04/06 03:40:16;;;;;;;8.60;7.70;;;;;;;2.78;100.00;102231.50;5022632;28;20219;-66
2023/04/06 03:42:42;;;;;;;11.70;8.40;;;;;;;2.68;100.00;102208.34;5018156;28;20183;-66
2023/04/06 03:45:08;;;;;;;9.37;8.10;;;;;;;2.72;100.00;102223.06;5035359;28;20342;-66
2023/04/06 03:47:33;;;;;;;12.60;9.33;;;;;;;2.38;100.00;102147.91;4996936;28;20286;-66
2023/04/06 03:49:59;;;;;;;10.17;9.17;;;;;;;2.72;100.00;102214.28;4996246;28;20429;-66
2023/04/06 03:52:25;;;;;;;12.73;9.40;;;;;;;2.94;100.00;102208.22;4994677;28;20234;-66
2023/04/06 03:54:50;;;;;;;9.23;8.33;;;;;;;2.80;100.00;102188.03;4995973;28;20533;-66
2023/04/06 03:57:15;;;;;;;10.67;8.10;;;;;;;2.87;100.00;102207.00;4998168;28;20213;-67
2023/04/06 03:59:41;;;;;;;11.70;9.30;;;;;;;2.54;100.00;102203.22;4993834;28;20190;-67
2023/04/06 04:02:06;;;;;;;10.33;9.20;;;;;;;2.73;100.00;102215.97;4993836;28;20565;-66
2023/04/06 04:07:09;;;;;;;10.37;8.87;;;;;;;2.49;100.00;102165.66;4994037;28;20236;-68
2023/04/06 04:09:35;;;;;;;12.13;9.03;;;;;;;2.39;100.00;102173.41;4987212;28;20492;-68
2023/04/06 04:12:01;;;;;;;12.47;10.03;;;;;;;2.19;100.00;102174.88;5002819;28;20196;-68
2023/04/06 04:14:26;;;;;;;10.70;9.10;;;;;;;2.72;100.00;102219.59;4985104;28;20192;-68
2023/04/06 04:16:52;;;;;;;9.97;8.97;;;;;;;2.49;100.00;102185.03;4999890;28;20209;-68
2023/04/06 04:19:17;;;;;;;12.17;9.50;;;;;;;2.86;100.00;102221.19;4999456;28;20201;-69
2023/04/06 04:21:45;;;;;;;10.33;8.60;;;;;;;2.55;100.00;102199.63;4998459;28;20216;-68
2023/04/06 04:24:10;;;;;;;11.00;9.90;;;;;;;2.53;100.00;102212.13;4980943;28;20218;-68
2023/04/06 04:26:38;;;;;;;11.00;9.03;;;;;;;2.54;100.00;102213.81;4997898;28;20464;-69
2023/04/06 04:29:03;;;;;;;11.70;8.93;;;;;;;2.19;100.00;102208.44;4997419;28;20946;-68
2023/04/06 04:31:29;;;;;;;9.83;8.83;;;;;;;2.44;100.00;102205.72;5002696;28;20445;-68
2023/04/06 04:33:55;;;;;;;12.60;9.80;;;;;;;2.60;100.00;102215.16;4985908;28;20197;-68
2023/04/06 04:36:20;;;;;;;13.73;9.50;;;;;;;2.43;100.00;102206.69;5001508;28;20459;-68
2023/04/06 04:38:46;;;;;;;12.80;9.70;;;;;;;2.08;100.00;102142.19;4984412;28;20197;-68
2023/04/06 04:41:11;;;;;;;11.63;10.53;;;;;;;1.72;100.00;102073.31;5004632;28;20189;-68
2023/04/06 04:43:37;;;;;;;11.63;8.57;;;;;;;1.96;100.00;102120.13;5001127;28;20205;-68
2023/04/06 04:46:03;;;;;;;11.47;10.07;;;;;;;2.35;100.00;102185.22;4992508;28;20217;-69
2023/04/06 04:48:29;;;;;;;10.90;9.53;;;;;;;2.41;100.00;102176.81;5000023;28;20208;-68
2023/04/06 04:50:55;;;;;;;10.87;9.80;;;;;;;2.04;100.00;102134.47;4995955;28;20803;-69
2023/04/06 04:53:20;;;;;;;11.87;9.90;;;;;;;2.11;100.00;102157.84;4988808;28;20215;-69
2023/04/06 04:55:46;;;;;;;11.87;9.80;;;;;;;2.03;100.00;102151.34;5003537;28;20255;-68
2023/04/06 04:58:16;;;;;;;10.10;9.10;;;;;;;2.47;100.00;102164.91;5003983;28;20193;-68
2023/04/06 05:00:42;;;;;;;10.37;8.63;;;;;;;2.06;100.00;102101.78;5003050;28;20189;-69
2023/04/06 05:03:08;;;;;;;11.27;9.80;;;;;;;2.30;100.00;102150.28;4989148;28;20435;-69
2023/04/06 05:05:36;;;;;;;11.90;10.70;;;;;;;2.08;100.00;102158.06;5000725;28;20479;-69
2023/04/06 05:08:02;;;;;;;12.50;10.90;;;;;;;2.38;100.00;102171.75;5002472;28;20900;-68
2023/04/06 05:10:27;;;;;;;10.47;9.20;;;;;;;2.31;100.00;102164.34;4990123;28;20469;-68
2023/04/06 05:12:53;;;;;;;10.80;9.70;;;;;;;1.97;100.00;102116.53;5003815;28;20188;-68
2023/04/06 05:15:18;;;;;;;13.90;10.50;;;;;;;1.77;100.00;102141.78;5001960;28;20679;-69
2023/04/06 05:17:44;;;;;;;10.20;8.97;;;;;;;1.71;100.00;102110.47;5003869;28;20212;-69
2023/04/06 05:20:10;;;;;;;10.60;9.47;;;;;;;1.74;100.00;102123.47;5001465;28;20249;-69
2023/04/06 05:22:35;;;;;;;10.03;9.03;;;;;;;2.07;100.00;102159.03;5002993;28;20188;-69
2023/04/06 05:25:02;;;;;;;13.83;10.50;;;;;;;2.23;100.00;102157.81;5000847;28;20895;-69
2023/04/06 05:27:28;;;;;;;13.27;10.60;;;;;;;2.13;100.00;102153.31;5006385;28;20299;-69
2023/04/06 05:29:53;;;;;;;13.20;9.70;;;;;;;2.08;100.00;102148.34;5005842;28;20444;-69
2023/04/06 05:32:21;;;;;;;11.50;9.80;;;;;;;2.14;100.00;102147.03;5007143;28;20296;-69
2023/04/06 05:34:49;;;;;;;11.10;10.00;;;;;;;2.69;100.00;102153.56;5006299;28;20208;-69
2023/04/06 05:37:14;;;;;;;10.80;9.70;;;;;;;2.25;100.00;102136.53;5005859;28;20521;-69
2023/04/06 05:39:40;;;;;;;11.33;9.73;;;;;;;2.57;100.00;102135.94;5007947;28;20439;-68
2023/04/06 05:42:06;;;;;;;13.37;10.70;;;;;;;2.07;100.00;102083.13;5005714;28;20621;-69
2023/04/06 05:44:32;;;;;;;11.70;10.50;;;;;;;1.98;100.00;102097.03;4992449;28;20746;-68
2023/04/06 05:46:57;;;;;;;11.77;9.57;;;;;;;2.52;100.00;102122.19;5006754;28;20591;-69
2023/04/06 05:49:23;;;;;;;10.40;9.40;;;;;;;2.11;100.00;102038.75;5006015;28;20431;-69
2023/04/06 05:51:48;;;;;;;13.70;9.73;;;;;;;2.47;100.00;102127.84;5011111;28;20220;-69
2023/04/06 05:54:14;;;;;;;11.50;10.30;;;;;;;2.58;100.00;102112.00;5010859;28;20582;-69
2023/04/06 05:56:40;;;;;;;16.10;14.40;;;;;;;2.51;100.00;102101.97;4993652;28;20223;-69
2023/04/06 05:59:05;;;;;;;19.10;17.10;;;;;;;2.15;100.00;102067.53;5007487;28;20640;-69
2023/04/06 06:01:31;;;;;;;20.60;18.50;;;;;;;2.65;100.00;102102.59;5005319;28;20196;-69
2023/04/06 06:03:56;;;;;;;29.97;27.07;;;;;;;2.68;100.00;102062.63;5000891;28;20232;-68
2023/04/06 06:06:22;;;;;;;18.20;16.40;;;;;;;2.87;100.00;102083.28;5004118;28;20275;-68
2023/04/06 06:08:47;;;;;;;11.10;10.00;;;;;;;2.70;100.00;102062.53;4989874;28;20296;-69
2023/04/06 06:11:13;;;;;;;11.70;10.30;;;;;;;2.37;100.00;102047.38;5006672;28;20185;-69
2023/04/06 06:13:38;;;;;;;12.37;10.10;;;;;;;2.69;100.00;102069.66;5006009;28;20605;-69
2023/04/06 06:16:05;;;;;;;12.17;10.60;;;;;;;2.59;100.00;102052.75;5003181;28;20205;-69
2023/04/06 06:18:31;;;;;;;22.50;20.30;;;;;;;2.94;100.00;102076.53;5006572;28;20260;-69
2023/04/06 06:20:56;;;;;;;28.43;25.50;;;;;;;3.08;100.00;102046.31;4995199;28;20439;-69
2023/04/06 06:23:22;;;;;;;24.97;22.27;;;;;;;2.77;100.00;102026.63;4987872;28;20479;-69
2023/04/06 06:25:47;;;;;;;16.53;15.03;;;;;;;3.04;100.00;102050.16;5004383;28;20190;-69
2023/04/06 06:28:13;;;;;;;12.43;10.50;;;;;;;3.07;100.00;102035.84;5005950;28;20189;-69
2023/04/06 06:30:39;;;;;;;10.87;9.67;;;;;;;3.23;100.00;102033.66;5001907;28;20243;-69
2023/04/06 06:33:04;;;;;;;26.50;23.80;;;;;;;2.97;100.00;101997.75;5001006;28;20199;-69
2023/04/06 06:35:30;;;;;;;12.83;11.53;;;;;;;3.31;100.00;102039.19;5003273;28;20215;-69
2023/04/06 06:37:55;;;;;;;17.13;15.37;;;;;;;3.41;100.00;102010.09;5003075;28;20674;-69
2023/04/06 06:40:23;;;;;;;34.50;30.97;;;;;;;3.45;100.00;102031.94;4986828;28;20240;-69
2023/04/06 06:42:49;;;;;;;23.43;20.97;;;;;;;3.41;100.00;102031.31;4986810;28;20190;-68
2023/04/06 06:45:15;;;;;;;12.90;11.60;;;;;;;2.90;100.00;101953.19;5005646;28;20471;-70
2023/04/06 06:47:41;;;;;;;9.67;8.67;;;;;;;3.42;100.00;102032.19;5006109;28;20942;-68
2023/04/06 06:50:06;;;;;;;11.10;9.23;;;;;;;3.73;100.00;102031.41;4986949;28;20436;-68
2023/04/06 06:52:32;;;;;;;13.17;8.40;;;;;;;3.52;100.00;102001.28;5005404;28;20272;-68
2023/04/06 06:54:57;;;;;;;10.30;9.00;;;;;;;3.78;100.00;102012.44;5003801;28;20432;-70
2023/04/06 06:57:23;;;;;;;11.00;8.50;;;;;;;3.54;100.00;101996.72;5008811;28;20204;-69
2023/04/06 06:59:48;;;;;;;13.57;9.00;;;;;;;3.71;100.00;102000.66;4986056;28;20191;-70
2023/04/06 07:02:14;;;;;;;10.17;9.07;;;;;;;3.97;100.00;101979.94;4999604;28;20207;-69
2023/04/06 07:04:39;;;;;;;13.60;12.10;;;;;;;3.80;100.00;101976.84;4999254;28;20601;-70
2023/04/06 07:07:05;;;;;;;92.13;82.37;;;;;;;3.77;100.00;101955.03;5004818;28;20221;-69
2023/04/06 07:09:30;;;;;;;60.83;54.60;;;;;;;4.26;100.00;102004.03;5005706;28;20658;-70
2023/04/06 07:11:56;;;;;;;105.70;94.03;;;;;;;4.21;100.00;101993.78;4988633;28;20189;-69
2023/04/06 07:14:22;;;;;;;27.83;25.03;;;;;;;4.04;100.00;101989.03;5006028;28;20244;-69
2023/04/06 07:16:48;;;;;;;15.90;13.80;;;;;;;4.26;100.00;101982.78;5004389;28;20209;-69
2023/04/06 07:19:14;;;;;;;10.97;9.10;;;;;;;4.33;100.00;101968.00;5005311;28;20185;-69
2023/04/06 07:21:39;;;;;;;9.87;7.93;;;;;;;4.43;100.00;101976.06;5004810;28;20933;-69
2023/04/06 07:24:05;;;;;;;9.47;8.47;;;;;;;4.55;100.00;101993.59;5003133;28;20287;-69
2023/04/06 07:26:31;;;;;;;9.20;7.03;;;;;;;4.70;100.00;101994.09;5003354;28;20223;-69
2023/04/06 07:28:56;;;;;;;8.17;7.37;;;;;;;4.59;100.00;101986.19;5004401;28;20494;-69
2023/04/06 07:31:22;;;;;;;8.90;8.00;;;;;;;4.74;100.00;101983.06;5004043;28;20606;-69
2023/04/06 07:33:47;;;;;;;8.43;7.20;;;;;;;4.70;100.00;101970.16;5002133;28;20209;-69
2023/04/06 07:36:13;;;;;;;8.13;7.40;;;;;;;4.94;100.00;101954.72;4988335;28;20217;-69
2023/04/06 07:38:38;;;;;;;7.80;7.00;;;;;;;5.11;100.00;101939.13;5004270;28;20239;-69
2023/04/06 07:41:04;;;;;;;8.10;6.90;;;;;;;5.12;100.00;101954.09;5004675;28;20216;-69
2023/04/06 07:43:30;;;;;;;9.03;7.20;;;;;;;5.42;100.00;101948.69;4987493;28;20197;-69
2023/04/06 07:45:57;;;;;;;9.07;7.03;;;;;;;5.20;100.00;101907.22;5003875;28;20447;-69
2023/04/06 07:48:23;;;;;;;7.50;6.73;;;;;;;5.27;100.00;101912.00;5002888;28;20189;-69
2023/04/06 07:50:48;;;;;;;8.20;6.50;;;;;;;5.52;100.00;101914.09;5004766;28;20435;-69
2023/04/06 07:53:14;;;;;;;6.93;6.10;;;;;;;5.72;100.00;101935.41;4989018;28;20428;-70
2023/04/06 07:55:39;;;;;;;6.80;5.90;;;;;;;5.57;100.00;101913.69;5005327;28;20188;-69
2023/04/06 07:58:05;;;;;;;7.77;6.93;;;;;;;5.77;100.00;101931.34;4985510;28;20197;-69
2023/04/06 08:00:31;;;;;;;6.60;5.90;;;;;;;5.83;100.00;101908.66;5004196;28;21278;-70
2023/04/06 08:02:56;;;;;;;7.20;6.17;;;;;;;5.98;100.00;101925.91;5000850;28;20188;-69
2023/04/06 08:05:22;;;;;;;6.43;5.83;;;;;;;5.95;100.00;101904.03;4997959;28;20691;-70
2023/04/06 08:07:47;;;;;;;7.30;6.47;;;;;;;6.18;100.00;101926.72;5001530;28;20224;-69
2023/04/06 08:10:13;;;;;;;7.07;6.37;;;;;;;6.02;100.00;101889.19;5002649;28;20680;-69
2023/04/06 08:12:38;;;;;;;7.47;6.27;;;;;;;5.95;100.00;101846.28;5003207;28;20240;-69
2023/04/06 08:15:04;;;;;;;6.80;5.83;;;;;;;6.37;100.00;101914.34;5003126;28;20206;-69
2023/04/06 08:17:31;;;;;;;6.87;5.93;;;;;;;6.53;100.00;101920.72;4988551;28;20299;-70
2023/04/06 08:19:57;;;;;;;6.70;5.80;;;;;;;6.30;100.00;101868.75;5003914;28;20428;-69
2023/04/06 08:22:22;;;;;;;8.80;6.27;;;;;;;6.53;100.00;101890.56;5003076;28;20482;-69
2023/04/06 08:24:48;;;;;;;6.50;5.80;;;;;;;6.62;100.00;101907.50;5002666;28;20237;-69
2023/04/06 08:27:14;;;;;;;7.80;6.37;;;;;;;6.47;100.00;101878.66;5004271;28;20764;-70
2023/04/06 08:29:40;;;;;;;7.07;6.37;;;;;;;6.31;100.00;101822.50;5002877;28;20232;-69
2023/04/06 08:32:06;;;;;;;11.53;6.50;;;;;;;6.78;100.00;101895.22;5003476;28;20829;-70
2023/04/06 08:34:34;;;;;;;7.60;6.33;;;;;;;6.90;100.00;101895.84;5003592;28;20185;-69
2023/04/06 08:37:00;;;;;;;16.70;14.90;;;;;;;6.74;100.00;101860.97;5003591;28;20448;-69
2023/04/06 08:39:27;;;;;;;17.43;15.43;;;;;;;6.95;100.00;101874.91;5003546;28;20455;-69
2023/04/06 08:41:56;;;;;;;10.93;8.80;;;;;;;7.09;100.00;101899.38;4988437;28;21030;-69
2023/04/06 08:44:22;;;;;;;9.27;7.00;;;;;;;7.14;100.00;101886.44;5001893;28;20530;-69
2023/04/06 08:46:48;;;;;;;44.80;39.60;;;;;;;7.16;100.00;101879.13;5002611;28;20526;-69
2023/04/06 08:49:15;;;;;;;41.13;33.53;;;;;;;7.30;100.00;101859.09;5003255;28;20447;-69
2023/04/06 08:51:42;;;;;;;76.77;68.57;;;;;;;7.38;100.00;101856.50;5003006;28;20200;-69
2023/04/06 08:54:08;;;;;;;16.33;14.67;;;;;;;7.30;100.00;101827.06;5002334;28;20514;-69
2023/04/06 08:56:37;;;;;;;26.50;23.77;;;;;;;7.36;100.00;101813.94;5002241;28;20971;-69
2023/04/06 08:59:03;;;;;;;69.63;62.63;;;;;;;7.53;100.00;101833.63;4989580;28;20610;-70
2023/04/06 09:01:30;;;;;;;16.90;15.13;;;;;;;7.65;100.00;101835.03;5001778;28;20432;-69
2023/04/06 09:03:58;;;;;;;8.93;8.00;;;;;;;7.61;100.00;101798.97;5002906;28;20467;-70
2023/04/06 09:06:26;;;;;;;10.27;8.00;;;;;;;7.68;100.00;101831.22;5002447;28;20463;-70
2023/04/06 09:08:52;;;;;;;21.17;18.97;;;;;;;7.95;100.00;101834.75;4986515;28;20431;-69
2023/04/06 09:11:18;;;;;;;33.43;29.13;;;;;;;7.81;100.00;101806.75;5004599;28;20432;-69
2023/04/06 09:13:48;;;;;;;10.00;7.60;;;;;;;7.93;100.00;101813.53;5002073;28;20193;-70
2023/04/06 09:16:14;;;;;;;60.57;54.60;;;;;;;7.94;100.00;101820.56;5001859;28;20590;-69
2023/04/06 09:18:39;;;;;;;26.77;24.23;;;;;;;8.12;100.00;101810.63;5002684;28;20424;-69
2023/04/06 09:21:06;;;;;;;57.20;51.20;;;;;;;8.18;100.00;101785.09;5001972;28;20920;-70
2023/04/06 09:23:32;;;;;;;38.70;34.53;;;;;;;8.17;100.00;101794.13;5002514;28;20204;-70
2023/04/06 09:26:07;;;;;;;16.03;10.90;;;;;;;8.27;100.00;101777.97;5002419;28;20813;-69
2023/04/06 09:28:53;;;;;;;8.60;7.30;;;;;;;8.46;100.00;101779.56;4985835;28;20965;-70
2023/04/06 09:31:24;;;;;;;16.60;14.93;;;;;;;8.50;100.00;101780.91;5001965;28;20953;-69
2023/04/06 09:33:50;;;;;;;82.80;70.80;;;;;;;8.36;100.00;101745.78;5001826;28;20771;-70
2023/04/06 09:36:15;;;;;;;23.37;20.90;;;;;;;8.56;100.00;101754.38;4988487;28;20458;-69
2023/04/06 09:38:58;;;;;;;90.87;81.40;;;;;;;8.70;100.00;101776.13;5002321;28;20852;-69
2023/04/06 09:41:29;;;;;;;29.00;25.90;;;;;;;8.82;100.00;101758.75;5002488;28;20185;-69
2023/04/06 09:44:11;;;;;;;92.20;77.40;;;;;;;8.91;100.00;101760.47;4987036;28;20456;-70
2023/04/06 09:46:41;;;;;;;28.43;22.67;;;;;;;8.89;100.00;101722.34;4988738;28;20455;-69
2023/04/06 09:49:08;;;;;;;10.70;9.23;;;;;;;8.95;100.00;101751.09;5001277;28;20428;-70
2023/04/06 09:51:40;;;;;;;8.53;7.03;;;;;;;8.97;100.00;101749.09;5001212;28;20937;-69
2023/04/06 09:54:07;;;;;;;8.40;5.93;;;;;;;8.70;100.00;101699.41;5001841;28;20449;-70
2023/04/06 09:57:03;;;;;;;8.03;6.33;;;;;;;9.08;100.00;101706.94;5002163;28;20443;-69
2023/04/06 09:59:56;;;;;;;10.43;6.10;;;;;;;9.18;100.00;101707.63;4990206;28;20443;-70
2023/04/06 10:02:53;;;;;;;8.33;6.07;;;;;;;9.17;100.00;101712.16;4989055;28;20428;-69
2023/04/06 10:05:28;;;;;;;9.07;5.90;;;;;;;9.28;100.00;101687.69;5005238;28;20554;-69
2023/04/06 10:07:57;;;;;;;8.80;6.10;;;;;;;7.90;100.00;101450.56;5003463;23;20478;-72
2023/04/06 10:10:22;;;;;;;6.90;5.63;;;;;;;7.73;100.00;101377.63;4997081;28;20436;-72
2023/04/06 10:12:49;;;;;;;6.97;6.20;;;;;;;8.83;100.00;101575.88;5000982;28;20458;-70
2023/04/06 10:15:15;;;;;;;8.33;6.70;;;;;;;9.62;100.00;101670.53;5004361;28;20207;-72
2023/04/06 10:17:41;;;;;;;8.10;6.50;;;;;;;8.63;100.00;101508.53;5008355;28;20451;-72
2023/04/06 10:20:18;;;;;;;11.03;6.70;;;;;;;9.41;100.00;101601.50;5010418;28;20890;-72
2023/04/06 10:23:16;;;;;;;10.17;7.60;;;;;;;9.16;100.00;101591.84;5009277;28;20185;-72
2023/04/06 10:25:59;;;;;;;8.43;6.90;;;;;;;9.68;100.00;101643.06;5006645;28;21132;-72
2023/04/06 10:28:25;;;;;;;6.30;5.70;;;;;;;8.91;100.00;101492.06;5007840;28;20506;-72
2023/04/06 10:30:58;;;;;;;8.60;7.23;;;;;;;10.00;100.00;101657.34;5009708;28;20802;-72
2023/04/06 10:33:23;;;;;;;7.03;5.90;;;;;;;9.72;100.00;101612.25;5010059;28;20534;-72
2023/04/06 10:35:49;;;;;;;9.10;6.23;;;;;;;8.46;100.00;101397.25;5008873;28;20983;-72
2023/04/06 10:38:14;;;;;;;8.83;6.80;;;;;;;10.24;100.00;101659.06;4991516;28;20225;-72
2023/04/06 10:40:44;;;;;;;8.23;7.27;;;;;;;10.07;100.00;101657.50;5009096;28;20265;-71
2023/04/06 10:43:13;;;;;;;7.60;6.87;;;;;;;10.26;100.00;101661.56;5008470;28;20275;-72
2023/04/06 10:45:39;;;;;;;11.03;6.93;;;;;;;10.02;100.00;101623.16;5007934;28;20480;-72
2023/04/06 10:48:18;;;;;;;8.70;7.33;;;;;;;10.46;100.00;101660.13;4990749;28;20464;-72
2023/04/06 10:50:48;;;;;;;10.60;8.53;;;;;;;10.03;100.00;101583.78;4992363;28;20425;-72
2023/04/06 10:53:25;;;;;;;15.00;8.83;;;;;;;10.35;100.00;101656.00;5007850;28;20425;-72
2023/04/06 10:55:52;;;;;;;11.00;8.27;;;;;;;10.23;100.00;101656.56;4988765;28;20530;-72
2023/04/06 10:58:18;;;;;;;13.40;9.00;;;;;;;10.76;100.00;101626.22;5008174;28;20517;-72
2023/04/06 11:00:49;;;;;;;10.70;8.80;;;;;;;10.42;100.00;101599.81;4991624;28;20539;-72
2023/04/06 11:03:15;;;;;;;13.43;8.60;;;;;;;10.66;100.00;101627.47;5007152;28;20535;-72
2023/04/06 11:05:48;;;;;;;10.80;8.00;;;;;;;10.07;100.00;101478.72;5007708;28;20503;-72
2023/04/06 11:08:25;;;;;;;12.50;8.67;;;;;;;10.39;100.00;101487.53;5004731;28;20553;-72
2023/04/06 11:10:50;;;;;;;9.53;8.57;;;;;;;11.28;100.00;101608.41;5005774;28;20475;-72
2023/04/06 11:13:17;;;;;;;12.13;7.60;;;;;;;11.22;100.00;101611.81;5008079;28;20463;-71
2023/04/06 11:15:42;;;;;;;11.93;9.20;;;;;;;10.89;100.00;101541.56;5007718;28;20691;-72
2023/04/06 11:18:08;;;;;;;10.00;8.00;;;;;;;11.27;100.00;101593.31;5007329;28;20543;-72
2023/04/06 11:20:33;;;;;;;11.50;9.60;;;;;;;10.06;100.00;101422.59;5007422;28;20706;-72